This is the latest recevied weather packets stored in our database for station/object HB9TVK-13. If no packets are shown the sender has not sent any weather packets the latest 10 day(s).
| Time | Temp. | Humidity | Pressure | Rain* | Wind** | Luminosity | Snow |
|---|---|---|---|---|---|---|---|
| 1777835235 | 13.33° C | 72% | 1016.5 hPa | 0 mm | - | - | - |
| 1777834636 | 13.33° C | 72% | 1016.4 hPa | 0 mm | - | - | - |
| 1777834036 | 13.33° C | 74% | 1016.4 hPa | 0 mm | - | - | - |
| 1777833436 | 13.33° C | 77% | 1016.4 hPa | 0 mm | - | - | - |
| 1777832837 | 13.33° C | 78% | 1016.4 hPa | 0 mm | - | - | - |
| 1777832237 | 12.78° C | 81% | 1016.3 hPa | 0 mm | - | - | - |
| 1777831638 | 13.33° C | 80% | 1016.2 hPa | 0 mm | - | - | - |
| 1777831035 | 13.33° C | 77% | 1016.1 hPa | 0 mm | - | - | - |
| 1777830436 | 13.33° C | 77% | 1016 hPa | 0.25 mm | - | - | - |
| 1777829836 | 13.33° C | 79% | 1016.1 hPa | 0.25 mm | - | - | - |
| 1777829236 | 13.33° C | 77% | 1016.2 hPa | 0.25 mm | - | - | - |
| 1777828637 | 13.33° C | 77% | 1016 hPa | 0.25 mm | - | - | - |
| 1777828037 | 13.33° C | 77% | 1016 hPa | 0.25 mm | - | - | - |
| 1777827438 | 13.33° C | 76% | 1015.9 hPa | 0.25 mm | - | - | - |
| 1777826835 | 12.22° C | 78% | 1016.3 hPa | 0 mm | - | - | - |
| 1777826236 | 13.33° C | 79% | 1016.4 hPa | 0 mm | - | - | - |
| 1777825636 | 13.33° C | 81% | 1016.6 hPa | 0 mm | - | - | - |
| 1777825036 | 13.89° C | 82% | 1016.7 hPa | 0.51 mm | - | - | - |
| 1777824437 | 13.89° C | 81% | 1016.7 hPa | 2.29 mm | - | - | - |
| 1777823837 | 14.44° C | 80% | 1016.6 hPa | 2.29 mm | - | - | - |
| 1777823237 | 14.44° C | 77% | 1016.6 hPa | 2.29 mm | - | - | - |
| 1777822635 | 15° C | 76% | 1016.5 hPa | 2.29 mm | - | - | - |
| 1777822036 | 16.11° C | 70% | 1015.8 hPa | 2.29 mm | - | - | - |
| 1777821436 | 18.33° C | 65% | 1016.1 hPa | 1.52 mm | - | - | - |
| 1777820836 | 20° C | 52% | 1015.7 hPa | 0 mm | - | - | - |
* Rain latest hour (hover to see other rain measurements)
** Current wind speed in m/s (hover to see current wind gust speed)